createdAt,value
2022-08-26T01:17:16.153Z,97037.25
2022-08-26T01:20:18.861Z,97044.50
2022-08-26T01:23:08.974Z,97042.47
2022-08-26T01:25:59.823Z,97042.03
2022-08-26T01:28:50.693Z,97049.38
2022-08-26T01:37:40.487Z,97047.75
2022-08-26T01:40:33.432Z,97038.31
2022-08-26T01:43:23.556Z,97046.91
2022-08-26T01:46:10.711Z,97029.09
2022-08-26T01:49:00.813Z,97032.59
2022-08-26T02:09:08.770Z,97040.72
2022-08-26T02:15:21.964Z,97035.50
2022-08-26T02:18:08.797Z,97042.25
2022-08-26T03:06:19.458Z,97007.34
2022-08-26T03:18:07.949Z,97012.78
2022-08-26T03:21:09.617Z,97013.88
2022-08-26T03:30:24.425Z,97000.50
2022-08-26T03:33:11.624Z,97005.88
2022-08-26T03:35:57.920Z,97007.22
2022-08-26T04:01:58.005Z,97005.44
2022-08-26T04:44:10.134Z,97008.97
2022-08-26T04:46:57.216Z,97016.75
2022-08-26T04:49:55.499Z,97013.50
2022-08-26T04:58:53.595Z,97014.44
2022-08-26T05:16:49.264Z,97007.78
2022-08-26T05:19:38.578Z,97018.97
2022-08-26T05:22:33.520Z,97011.38
2022-08-26T05:31:20.482Z,97015.03
2022-08-26T05:58:54.503Z,97019.69
2022-08-26T06:01:41.403Z,97026.94
2022-08-26T06:13:43.332Z,97025.44
2022-08-26T07:48:21.476Z,97024.78
2022-08-26T08:00:12.914Z,97024.16
2022-08-26T08:03:00.583Z,97021.00
2022-08-26T08:05:46.491Z,97022.00
2022-08-26T08:08:33.181Z,97021.84
2022-08-26T08:11:23.422Z,97016.47
2022-08-26T08:19:55.195Z,97019.56
2022-08-26T08:22:42.495Z,97019.59
2022-08-26T08:25:29.367Z,97017.13
2022-08-26T08:33:57.392Z,97020.09
2022-08-26T08:40:18.640Z,97013.09
2022-08-26T08:43:13.753Z,97013.94
2022-08-26T08:46:08.249Z,97009.19
2022-08-26T08:49:19.555Z,97004.41
2022-08-26T08:52:23.488Z,97002.34
2022-08-26T08:55:18.180Z,96992.19
2022-08-26T08:58:10.495Z,96999.16
2022-08-26T09:01:09.864Z,96994.09
2022-08-26T09:04:13.690Z,96986.28
2022-08-26T09:07:06.985Z,96981.97
2022-08-26T09:09:59.318Z,96984.19
2022-08-26T09:12:50.870Z,96987.81
2022-08-26T09:19:00.324Z,96984.59
2022-08-26T09:21:56.799Z,96979.00
2022-08-26T09:24:48.287Z,96972.66
2022-08-26T09:27:47.502Z,96972.16
2022-08-26T09:30:38.114Z,96973.13
2022-08-26T09:33:29.463Z,96969.84
2022-08-26T09:36:26.568Z,96958.81
2022-08-26T09:39:27.776Z,96961.78
2022-08-26T09:42:22.865Z,96964.13
2022-08-26T09:45:10.606Z,96955.66
2022-08-26T09:48:01.252Z,96954.78
2022-08-26T09:50:56.675Z,96950.88
2022-08-26T09:54:24.424Z,96941.19
2022-08-26T09:57:26.519Z,96944.97
2022-08-26T10:00:38.556Z,96939.06
2022-08-26T10:03:28.551Z,96936.31
2022-08-26T10:06:17.698Z,96943.84
2022-08-26T10:09:11.446Z,96935.59
2022-08-26T10:12:01.072Z,96941.25
2022-08-26T10:14:54.218Z,96930.50
2022-08-26T10:18:00.232Z,96924.84
2022-08-26T10:20:55.858Z,96918.19
2022-08-26T10:24:07.008Z,96915.03
2022-08-26T10:27:19.972Z,96919.44
2022-08-26T10:30:11.146Z,96910.13
2022-08-26T10:33:04.521Z,96902.88
2022-08-26T10:36:52.426Z,96898.34
2022-08-26T10:40:18.644Z,96900.09
2022-08-26T10:43:26.523Z,96891.44
2022-08-26T10:46:27.378Z,96887.25
2022-08-26T10:49:16.004Z,96877.38
2022-08-26T10:52:22.864Z,96879.75
2022-08-26T10:55:29.673Z,96882.19
2022-08-26T10:58:52.975Z,96884.13
2022-08-26T11:01:47.225Z,96884.72
2022-08-26T11:04:44.507Z,96890.78
2022-08-26T11:22:36.223Z,96875.06
2022-08-26T11:43:34.100Z,96857.31
2022-08-26T11:46:28.051Z,96847.94
2022-08-26T11:49:14.879Z,96844.41
2022-08-26T11:55:01.893Z,96822.59
2022-08-26T11:57:54.876Z,96816.81
2022-08-26T12:01:09.582Z,96820.56
2022-08-26T12:06:50.152Z,96830.19
2022-08-26T12:09:52.811Z,96842.97
2022-08-26T12:12:40.343Z,96842.97
2022-08-26T12:15:29.741Z,96848.19
2022-08-26T12:21:34.574Z,96845.00
2022-08-26T12:33:51.192Z,96840.41
2022-08-26T12:36:43.190Z,96846.41
2022-08-26T12:39:40.459Z,96835.34
2022-08-26T12:50:57.277Z,96857.50
2022-08-26T12:53:44.410Z,96857.31
2022-08-26T12:56:40.141Z,96860.69
2022-08-26T12:59:26.867Z,96853.56
2022-08-26T13:02:36.196Z,96854.38
2022-08-26T13:05:25.567Z,96849.63
2022-08-26T13:11:26.570Z,96860.81
2022-08-26T13:17:10.512Z,96854.25
2022-08-26T13:20:02.683Z,96851.31
2022-08-26T13:22:58.494Z,96856.41
2022-08-26T13:25:45.438Z,96857.19
2022-08-26T13:28:31.669Z,96855.03
2022-08-26T13:31:20.008Z,96856.16
2022-08-26T13:34:06.188Z,96863.88
2022-08-26T13:36:54.508Z,96845.31
2022-08-26T13:39:41.959Z,96847.78
2022-08-26T13:48:14.559Z,96847.22
2022-08-26T13:51:02.487Z,96845.47
2022-08-26T13:59:47.007Z,96835.94
2022-08-26T14:02:33.694Z,96830.38
2022-08-26T14:05:20.050Z,96834.69
2022-08-26T14:08:06.737Z,96826.31
2022-08-26T14:10:52.878Z,96817.38
2022-08-26T14:13:39.526Z,96820.53
2022-08-26T14:23:12.999Z,96802.19
2022-08-26T14:26:08.489Z,96799.47
2022-08-26T14:29:03.131Z,96803.16
2022-08-26T14:31:49.530Z,96796.16
2022-08-26T14:35:07.359Z,96807.63
2022-08-26T14:37:54.090Z,96808.38
2022-08-26T14:40:44.799Z,96816.47
2022-08-26T14:43:31.469Z,96825.06
2022-08-26T14:46:18.486Z,96818.84
2022-08-26T14:49:09.877Z,96815.25
2022-08-26T14:51:56.793Z,96802.44
2022-08-26T14:54:42.735Z,96799.19
2022-08-26T15:03:44.827Z,96786.75
2022-08-26T15:06:32.092Z,96783.78
2022-08-26T15:09:20.889Z,96779.69
2022-08-26T15:12:02.471Z,96786.91
2022-08-26T15:14:48.756Z,96785.88
2022-08-26T15:17:35.907Z,96791.94
2022-08-26T15:20:21.896Z,96796.56
2022-08-26T15:23:11.400Z,96789.91
2022-08-26T15:28:45.024Z,96788.44
2022-08-26T15:31:33.563Z,96786.34
2022-08-26T15:34:20.145Z,96787.56
2022-08-26T15:40:02.471Z,96779.16
2022-08-26T15:42:54.420Z,96787.47
2022-08-26T15:45:47.394Z,96780.72
2022-08-26T15:51:32.047Z,96771.19
2022-08-26T16:06:41.557Z,96738.69
2022-08-26T16:50:25.291Z,96725.22
2022-08-26T16:58:59.079Z,96733.28
2022-08-26T17:01:54.515Z,96731.41
2022-08-26T17:04:41.458Z,96743.00
2022-08-26T17:07:32.179Z,96735.38
2022-08-26T17:16:26.926Z,96752.66
2022-08-26T17:22:26.569Z,96755.22
2022-08-26T21:39:50.150Z,96797.53
2022-08-26T21:42:36.334Z,96805.09
2022-08-26T22:17:38.150Z,96799.28
2022-08-26T22:20:24.155Z,96791.25
2022-08-26T22:23:10.641Z,96796.41
2022-08-26T22:25:58.556Z,96805.81
2022-08-26T22:37:32.808Z,96813.72
2022-08-26T22:40:19.575Z,96811.88
2022-08-26T22:43:06.600Z,96819.69
2022-08-26T22:45:53.260Z,96813.03
2022-08-26T22:48:39.698Z,96817.09
2022-08-26T22:51:26.011Z,96822.47
2022-08-26T22:54:12.751Z,96816.66
2022-08-26T23:00:02.785Z,96818.09
2022-08-26T23:02:48.945Z,96821.91
2022-08-26T23:05:35.437Z,96819.53
2022-08-26T23:08:21.966Z,96815.56
2022-08-26T23:14:12.669Z,96822.06
2022-08-26T23:16:58.737Z,96822.63
2022-08-26T23:40:30.331Z,96800.31
